Map

Track Data

SID SEASON NUMBER BASIN SUBBASIN NAME ISO_TIME NATURE LAT LON WMO_WIND WMO_PRES WMO_AGENCY TRACK_TYPE DIST2LAND LANDFALL IFLAG USA_AGENCY USA_ATCF_ID USA_LAT USA_LON USA_RECORD USA_STATUS USA_WIND USA_PRES USA_SSHS USA_R34_NE USA_R34_SE USA_R34_SW USA_R34_NW USA_R50_NE USA_R50_SE USA_R50_SW USA_R50_NW USA_R64_NE USA_R64_SE USA_R64_SW USA_R64_NW USA_POCI USA_ROCI USA_RMW USA_EYE TOKYO_LAT TOKYO_LON TOKYO_GRADE TOKYO_WIND TOKYO_PRES TOKYO_R50_DIR TOKYO_R50_LONG TOKYO_R50_SHORT TOKYO_R30_DIR TOKYO_R30_LONG TOKYO_R30_SHORT TOKYO_LAND CMA_LAT CMA_LON CMA_CAT CMA_WIND CMA_PRES HKO_LAT HKO_LON HKO_CAT HKO_WIND HKO_PRES NEWDELHI_LAT NEWDELHI_LON NEWDELHI_GRADE NEWDELHI_WIND NEWDELHI_PRES NEWDELHI_CI NEWDELHI_DP NEWDELHI_POCI REUNION_LAT REUNION_LON REUNION_TYPE REUNION_WIND REUNION_PRES REUNION_TNUM REUNION_CI REUNION_RMW REUNION_R34_NE REUNION_R34_SE REUNION_R34_SW REUNION_R34_NW REUNION_R50_NE REUNION_R50_SE REUNION_R50_SW REUNION_R50_NW REUNION_R64_NE REUNION_R64_SE REUNION_R64_SW REUNION_R64_NW BOM_LAT BOM_LON BOM_TYPE BOM_WIND BOM_PRES BOM_TNUM BOM_CI BOM_RMW BOM_R34_NE BOM_R34_SE BOM_R34_SW BOM_R34_NW BOM_R50_NE BOM_R50_SE BOM_R50_SW BOM_R50_NW BOM_R64_NE BOM_R64_SE BOM_R64_SW BOM_R64_NW BOM_ROCI BOM_POCI BOM_EYE BOM_POS_METHOD BOM_PRES_METHOD NADI_LAT NADI_LON NADI_CAT NADI_WIND NADI_PRES WELLINGTON_LAT WELLINGTON_LON WELLINGTON_WIND WELLINGTON_PRES DS824_LAT DS824_LON DS824_STAGE DS824_WIND DS824_PRES TD9636_LAT TD9636_LON TD9636_STAGE TD9636_WIND TD9636_PRES TD9635_LAT TD9635_LON TD9635_WIND TD9635_PRES TD9635_ROCI NEUMANN_LAT NEUMANN_LON NEUMANN_CLASS NEUMANN_WIND NEUMANN_PRES MLC_LAT MLC_LON MLC_CLASS MLC_WIND MLC_PRES USA_GUST BOM_GUST BOM_GUST_PER REUNION_GUST REUNION_GUST_PER USA_SEAHGT USA_SEARAD_NE USA_SEARAD_SE USA_SEARAD_SW USA_SEARAD_NW STORM_SPEED STORM_DIR
1931176N18273 1931 18 NA CS NOT_NAMED 1931-06-24 12:00:00 TS 18.0000 -87.0000 30 hurdat_atl main 87 81 O_____________ hurdat_atl AL011931 18.0000 -87.0000 TD 30 -1 6 5
1931176N18273 1931 18 NA CS NOT_NAMED 1931-06-24 15:00:00 TS 18.3000 -86.9550 main 81 80 P_____________ AL011931 18.3000 -86.9550 TD 32 -1 6 9
1931176N18273 1931 18 NA CS NOT_NAMED 1931-06-24 18:00:00 TS 18.6000 -86.9000 35 hurdat_atl main 80 74 O_____________ hurdat_atl AL011931 18.6000 -86.9000 TS 35 0 6 11
1931176N18273 1931 18 NA CS NOT_NAMED 1931-06-24 21:00:00 TS 18.9000 -86.8351 main 80 71 P_____________ AL011931 18.9000 -86.8351 TS 37 0 6 9
1931176N18273 1931 18 NA CS NOT_NAMED 1931-06-25 00:00:00 TS 19.2000 -86.8000 40 hurdat_atl main 71 62 O_____________ hurdat_atl AL011931 19.2000 -86.8000 TS 40 0 6 0
1931176N18273 1931 18 NA CS NOT_NAMED 1931-06-25 03:00:00 TS 19.4925 -86.8349 main 62 53 P_____________ AL011931 19.4925 -86.8349 TS 42 0 6 351
1931176N18273 1931 18 NA CS NOT_NAMED 1931-06-25 06:00:00 TS 19.8000 -86.9000 45 hurdat_atl main 62 61 O_____________ hurdat_atl AL011931 19.8000 -86.9000 TS 45 0 6 355
1931176N18273 1931 18 NA CS NOT_NAMED 1931-06-25 09:00:00 TS 20.1348 -86.8979 main 61 23 P_____________ AL011931 20.1348 -86.8979 TS 45 0 7 352
1931176N18273 1931 18 NA CS NOT_NAMED 1931-06-25 12:00:00 TS 20.5000 -87.0000 45 hurdat_atl main 23 0 O_____________ hurdat_atl AL011931 20.5000 -87.0000 TS 45 0 9 331
1931176N18273 1931 18 NA NA NOT_NAMED 1931-06-25 15:00:00 TS 20.8851 -87.3399 main 0 0 P_____________ AL011931 20.8851 -87.3399 TS 42 0 11 317
1931176N18273 1931 18 NA NA NOT_NAMED 1931-06-25 18:00:00 TS 21.3000 -87.8000 40 hurdat_atl main 0 0 O_____________ hurdat_atl AL011931 21.3000 -87.8000 TS 40 0 12 316
1931176N18273 1931 18 NA GM NOT_NAMED 1931-06-25 21:00:00 TS 21.7423 -88.2278 main 22 22 P_____________ AL011931 21.7423 -88.2278 TS 40 0 12 317
1931176N18273 1931 18 NA GM NOT_NAMED 1931-06-26 00:00:00 TS 22.2000 -88.7000 40 hurdat_atl main 78 78 O_____________ hurdat_atl AL011931 22.2000 -88.7000 TS 40 0 13 315
1931176N18273 1931 18 NA GM NOT_NAMED 1931-06-26 03:00:00 TS 22.6574 -89.2277 main 147 147 P_____________ AL011931 22.6574 -89.2277 TS 40 0 14 312
1931176N18273 1931 18 NA GM NOT_NAMED 1931-06-26 06:00:00 TS 23.1000 -89.8000 40 hurdat_atl main 207 207 O_____________ hurdat_atl AL011931 23.1000 -89.8000 TS 40 0 14 309
1931176N18273 1931 18 NA GM NOT_NAMED 1931-06-26 09:00:00 TS 23.5223 -90.3852 main 262 262 P_____________ AL011931 23.5223 -90.3852 TS 40 0 14 306
1931176N18273 1931 18 NA GM NOT_NAMED 1931-06-26 12:00:00 TS 23.9000 -91.0000 40 hurdat_atl main 321 321 O_____________ hurdat_atl AL011931 23.9000 -91.0000 TS 40 0 13 302
1931176N18273 1931 18 NA GM NOT_NAMED 1931-06-26 15:00:00 TS 24.2221 -91.6280 main 371 371 P_____________ AL011931 24.2221 -91.6280 TS 40 0 13 297
1931176N18273 1931 18 NA GM NOT_NAMED 1931-06-26 18:00:00 TS 24.5000 -92.3000 40 hurdat_atl main 431 431 O_____________ hurdat_atl AL011931 24.5000 -92.3000 TS 40 0 14 292
1931176N18273 1931 18 NA GM NOT_NAMED 1931-06-26 21:00:00 TS 24.7577 -93.0577 main 421 348 P_____________ AL011931 24.7577 -93.0577 TS 40 0 15 290
1931176N18273 1931 18 NA GM NOT_NAMED 1931-06-27 00:00:00 TS 25.0000 -93.8000 40 hurdat_atl main 348 284 O_____________ hurdat_atl AL011931 25.0000 -93.8000 TS 40 0 13 291
1931176N18273 1931 18 NA GM NOT_NAMED 1931-06-27 03:00:00 TS 25.2496 -94.4378 main 284 217 P_____________ AL011931 25.2496 -94.4378 TS 40 0 12 295
1931176N18273 1931 18 NA GM NOT_NAMED 1931-06-27 06:00:00 TS 25.5000 -95.0000 40 hurdat_atl main 217 163 O_____________ hurdat_atl AL011931 25.5000 -95.0000 TS 40 0 11 297
1931176N18273 1931 18 NA GM NOT_NAMED 1931-06-27 09:00:00 TS 25.7573 -95.5301 main 161 109 P_____________ AL011931 25.7573 -95.5301 TS 40 0 10 299
1931176N18273 1931 18 NA GM NOT_NAMED 1931-06-27 12:00:00 TS 26.0000 -96.0000 40 hurdat_atl main 109 73 O_____________ hurdat_atl AL011931 26.0000 -96.0000 TS 40 0 9 300
1931176N18273 1931 18 NA GM NOT_NAMED 1931-06-27 15:00:00 TS 26.2160 -96.4189 main 73 51 P_____________ AL011931 26.2160 -96.4189 TS 40 0 8 299
1931176N18273 1931 18 NA GM NOT_NAMED 1931-06-27 18:00:00 TS 26.4000 -96.8000 40 hurdat_atl main 51 29 O_____________ hurdat_atl AL011931 26.4000 -96.8000 TS 40 0 7 297
1931176N18273 1931 18 NA GM NOT_NAMED 1931-06-27 21:00:00 TS 26.5517 -97.1659 main 19 9 P_____________ AL011931 26.5517 -97.1659 TS 40 0 7 294
1931176N18273 1931 18 NA GM NOT_NAMED 1931-06-27 22:00:00 TS 26.6000 -97.3000 40 hurdat_atl main 9 0 O_____________ hurdat_atl AL011931 26.6000 -97.3000 L TS 40 0 8 291
1931176N18273 1931 18 NA NA NOT_NAMED 1931-06-28 00:00:00 TS 26.7000 -97.6000 35 hurdat_atl main 0 0 O_____________ hurdat_atl AL011931 26.7000 -97.6000 TS 35 0 7 290
1931176N18273 1931 18 NA NA NOT_NAMED 1931-06-28 03:00:00 TS 26.8180 -97.9544 main 0 0 P_____________ AL011931 26.8180 -97.9544 TS 32 -1 6 290
1931176N18273 1931 18 NA NA NOT_NAMED 1931-06-28 06:00:00 TS 26.9000 -98.2000 30 hurdat_atl main 0 0 O_____________ hurdat_atl AL011931 26.9000 -98.2000 TD 30 -1 4 291
1931176N18273 1931 18 NA NA NOT_NAMED 1931-06-28 09:00:00 TS 26.9649 -98.3801 main 0 0 P_____________ AL011931 26.9649 -98.3801 TD 30 -1 3 291
1931176N18273 1931 18 NA NA NOT_NAMED 1931-06-28 12:00:00 TS 27.0000 -98.5000 30 hurdat_atl main 0 0 O_____________ hurdat_atl AL011931 27.0000 -98.5000 TD 30 -1 2 282
1931176N18273 1931 18 NA NA NOT_NAMED 1931-06-28 15:00:00 TS 27.0075 -98.6025 main 0 0 P_____________ AL011931 27.0075 -98.6025 TD 27 -1 2 270
1931176N18273 1931 18 NA NA NOT_NAMED 1931-06-28 18:00:00 TS 27.0000 -98.7000 25 hurdat_atl main 0 O_____________ hurdat_atl AL011931 27.0000 -98.7000 TD 25 -1 2 265

About IBTrACS Database

This database is a web-friendly format of International Best Track Archive for Climate Stewardship (IBTrACS), a global best track data archive curated by NOAA dating back to 1842.

Updated: 2021-11-26